Time;durP1;ratioP1;P1;durP2;ratioP2;P2;SDS_P1;SDS_P2;PMS_P1;PMS_P2;Temp;Humidity;BMP_temperature;BMP_pressure;BME280_temperature;BME280_humidity;BME280_pressure;Samples;Min_cycle;Max_cycle;Signal;HPM_P1;HPM_P2
2022/11/05 00:10:39;;;;;;;11.88;8.05;;;12.50;99.90;;;;;;5101200;28;20222;-75
2022/11/05 00:18:38;;;;;;;9.73;8.77;;;12.50;99.90;;;;;;5086841;28;20226;-76
2022/11/05 00:25:12;;;;;;;11.35;9.95;;;12.40;99.90;;;;;;5088202;28;20231;-76
2022/11/05 00:26:39;;;;;;;9.77;8.38;;;12.50;99.90;;;;;;5072482;28;20256;-80
2022/11/05 00:29:09;;;;;;;10.10;8.05;;;12.40;99.90;;;;;;5083635;28;20302;-80
2022/11/05 00:31:38;;;;;;;8.45;7.55;;;12.40;99.90;;;;;;5093382;28;20257;-80
2022/11/05 00:34:05;;;;;;;7.65;6.90;;;12.40;99.90;;;;;;5089251;28;20223;-80
2022/11/05 00:36:33;;;;;;;8.63;7.72;;;12.40;99.90;;;;;;5090174;28;20245;-79
2022/11/05 00:39:00;;;;;;;7.50;6.80;;;12.40;99.90;;;;;;5087389;28;20215;-80
2022/11/05 00:41:27;;;;;;;7.68;6.88;;;12.50;99.90;;;;;;5086911;28;20232;-81
2022/11/05 00:46:40;;;;;;;10.90;8.75;;;12.50;99.90;;;;;;5085853;28;20300;-76
2022/11/05 00:52:54;;;;;;;8.52;6.63;;;12.50;99.90;;;;;;5080648;28;20219;-76
2022/11/05 00:54:39;;;;;;;9.05;6.70;;;12.40;99.90;;;;;;5083977;28;20231;-81
2022/11/05 00:57:06;;;;;;;7.40;6.35;;;12.40;99.90;;;;;;5081774;28;20239;-81
2022/11/05 00:59:34;;;;;;;7.35;6.55;;;12.40;99.90;;;;;;5084155;28;20227;-77
2022/11/05 01:02:01;;;;;;;10.60;7.00;;;12.40;99.90;;;;;;5087891;28;20231;-77
2022/11/05 01:04:28;;;;;;;6.57;5.53;;;12.40;99.90;;;;;;5078002;28;20262;-77
2022/11/05 01:06:55;;;;;;;9.88;6.25;;;12.40;99.90;;;;;;5071674;28;20231;-81
2022/11/05 01:09:23;;;;;;;6.07;5.57;;;12.50;99.90;;;;;;5078232;28;20262;-81
2022/11/05 01:11:50;;;;;;;5.80;5.30;;;12.50;99.90;;;;;;5083538;28;20250;-81
2022/11/05 01:14:17;;;;;;;6.55;5.47;;;12.50;99.90;;;;;;5080338;28;20234;-81
2022/11/05 01:16:46;;;;;;;8.13;5.00;;;12.50;99.90;;;;;;5083145;28;20631;-77
2022/11/05 01:19:13;;;;;;;5.63;5.13;;;12.50;99.90;;;;;;5081239;28;20333;-76
2022/11/05 01:21:40;;;;;;;7.35;5.57;;;12.50;99.90;;;;;;5081714;28;20661;-81
2022/11/05 01:24:09;;;;;;;6.88;5.80;;;12.50;99.90;;;;;;5082566;28;20649;-81
2022/11/05 01:26:36;;;;;;;9.68;5.38;;;12.50;99.90;;;;;;5082876;28;20295;-81
2022/11/05 01:29:03;;;;;;;6.75;5.53;;;12.50;99.90;;;;;;5083901;28;20296;-81
2022/11/05 01:31:32;;;;;;;5.68;4.97;;;12.50;99.90;;;;;;5081368;28;20285;-80
2022/11/05 01:34:01;;;;;;;7.70;5.32;;;12.50;99.90;;;;;;5082717;28;20223;-81
2022/11/05 01:36:28;;;;;;;6.22;5.68;;;12.50;99.90;;;;;;5083461;28;20223;-81
2022/11/05 01:38:55;;;;;;;7.70;5.88;;;12.50;99.90;;;;;;5084468;28;20310;-81
2022/11/05 01:41:22;;;;;;;10.30;6.10;;;12.50;99.90;;;;;;5082586;28;20216;-81
2022/11/05 01:43:51;;;;;;;13.88;6.20;;;12.50;99.90;;;;;;5083506;28;20569;-81
2022/11/05 01:46:23;;;;;;;6.63;5.35;;;12.40;99.90;;;;;;5088445;28;20219;-77
2022/11/05 01:48:53;;;;;;;11.00;4.72;;;12.40;99.90;;;;;;5082732;28;20269;-77
2022/11/05 01:51:25;;;;;;;6.68;5.38;;;12.40;99.90;;;;;;5084267;28;20284;-81
2022/11/05 01:53:57;;;;;;;6.50;5.85;;;12.40;99.90;;;;;;5083418;28;20221;-82
2022/11/05 01:56:30;;;;;;;5.85;5.35;;;12.40;99.90;;;;;;5078600;28;20300;-82
2022/11/05 01:59:00;;;;;;;8.40;6.03;;;12.40;99.90;;;;;;5082797;28;20248;-81
2022/11/05 02:01:28;;;;;;;7.43;6.35;;;12.40;99.90;;;;;;5084435;28;20211;-81
2022/11/05 02:03:59;;;;;;;5.82;5.15;;;12.40;99.90;;;;;;5079957;28;20212;-77
2022/11/05 02:06:30;;;;;;;5.85;5.25;;;12.40;99.90;;;;;;5084928;28;20219;-77
2022/11/05 02:09:00;;;;;;;5.85;5.00;;;12.40;99.90;;;;;;5089506;28;20215;-81
2022/11/05 02:11:27;;;;;;;6.60;6.00;;;12.40;99.90;;;;;;5074729;28;20228;-81
2022/11/05 02:13:54;;;;;;;7.85;5.80;;;12.40;99.90;;;;;;5081528;28;20243;-80
2022/11/05 02:16:33;;;;;;;6.60;5.75;;;12.40;99.90;;;;;;5079774;28;20692;-81
2022/11/05 02:19:15;;;;;;;6.97;6.15;;;12.30;99.90;;;;;;5081783;28;20251;-76
2022/11/05 02:22:15;;;;;;;8.05;5.93;;;12.30;99.90;;;;;;5079317;28;20618;-77
2022/11/05 02:25:01;;;;;;;6.72;6.13;;;12.30;99.90;;;;;;5041545;28;20236;-77
2022/11/05 02:28:11;;;;;;;10.30;6.72;;;12.30;99.90;;;;;;5075486;28;20230;-81
2022/11/05 02:30:49;;;;;;;9.73;7.47;;;12.20;99.90;;;;;;5069420;28;20227;-80
2022/11/05 02:33:28;;;;;;;8.80;6.80;;;12.20;99.90;;;;;;5088883;28;20242;-77
2022/11/05 02:36:15;;;;;;;8.10;7.40;;;12.20;99.90;;;;;;5066514;28;20244;-76
2022/11/05 02:38:50;;;;;;;7.47;6.75;;;12.20;99.90;;;;;;5061348;28;20254;-76
2022/11/05 02:41:24;;;;;;;7.15;6.45;;;12.20;99.90;;;;;;5078909;28;20302;-76
2022/11/05 02:44:05;;;;;;;8.85;7.93;;;12.20;99.90;;;;;;5073961;28;20772;-81
2022/11/05 02:46:44;;;;;;;9.25;6.75;;;12.10;99.90;;;;;;5089295;28;20224;-81
2022/11/05 02:49:22;;;;;;;10.95;7.78;;;12.10;99.90;;;;;;5082490;28;20216;-77
2022/11/05 02:51:57;;;;;;;9.35;8.15;;;12.10;99.90;;;;;;5090718;28;20223;-77
2022/11/05 02:54:32;;;;;;;8.35;7.55;;;12.10;99.90;;;;;;5088092;28;20215;-77
2022/11/05 02:57:02;;;;;;;8.60;7.80;;;12.10;99.90;;;;;;5083129;28;20671;-81
2022/11/05 02:59:29;;;;;;;10.57;6.97;;;12.00;99.90;;;;;;5084911;28;20321;-81
2022/11/05 03:01:59;;;;;;;8.27;7.20;;;12.00;99.90;;;;;;5086784;28;20261;-81
2022/11/05 03:04:27;;;;;;;9.07;7.25;;;12.00;99.90;;;;;;5083717;28;20249;-77
2022/11/05 03:07:43;;;;;;;10.55;8.02;;;12.00;99.90;;;;;;5093333;28;20306;-77
2022/11/05 03:10:30;;;;;;;8.50;7.70;;;12.00;99.90;;;;;;5078905;28;20220;-77
2022/11/05 03:13:11;;;;;;;10.52;8.65;;;11.90;99.90;;;;;;5075498;28;20315;-77
2022/11/05 03:15:54;;;;;;;9.88;8.90;;;11.90;99.90;;;;;;5076154;28;20331;-77
2022/11/05 03:18:27;;;;;;;9.65;7.75;;;11.80;99.90;;;;;;5089943;28;20216;-78
2022/11/05 03:21:03;;;;;;;9.50;7.63;;;11.80;99.90;;;;;;5092618;28;20262;-82
2022/11/05 03:23:37;;;;;;;7.18;6.50;;;11.80;99.90;;;;;;5092762;28;20226;-82
2022/11/05 03:26:10;;;;;;;9.13;7.75;;;11.80;99.90;;;;;;5093329;28;20222;-78
2022/11/05 03:28:41;;;;;;;8.95;6.82;;;11.80;99.90;;;;;;5085208;28;20315;-81
2022/11/05 03:31:11;;;;;;;8.60;7.70;;;11.80;99.90;;;;;;5075809;28;20220;-78
2022/11/05 03:33:41;;;;;;;8.18;7.22;;;11.80;99.90;;;;;;5074275;28;20224;-81
2022/11/05 03:36:15;;;;;;;7.60;6.90;;;11.70;99.90;;;;;;5089717;28;20745;-77
2022/11/05 03:38:46;;;;;;;8.23;6.85;;;11.70;99.90;;;;;;5073885;28;20587;-78
2022/11/05 03:41:15;;;;;;;12.65;8.23;;;11.70;99.90;;;;;;5073506;28;20251;-81
2022/11/05 03:43:47;;;;;;;7.60;6.82;;;11.70;99.90;;;;;;5086135;28;20246;-82
2022/11/05 03:46:20;;;;;;;8.10;7.32;;;11.70;99.90;;;;;;5080745;28;20224;-81
2022/11/05 03:48:52;;;;;;;10.02;7.63;;;11.70;99.90;;;;;;5073212;28;20266;-76
2022/11/05 03:51:27;;;;;;;8.70;7.57;;;11.70;99.90;;;;;;5085723;28;20238;-76
2022/11/05 03:53:58;;;;;;;6.57;5.88;;;11.70;99.90;;;;;;5079045;28;20557;-76
2022/11/05 03:56:31;;;;;;;7.82;7.03;;;11.70;99.90;;;;;;5073800;28;20300;-77
2022/11/05 03:59:01;;;;;;;8.95;7.72;;;11.70;99.90;;;;;;5085666;28;20334;-80
2022/11/05 04:01:29;;;;;;;8.55;7.60;;;11.70;99.90;;;;;;5082082;28;20236;-76
2022/11/05 04:03:57;;;;;;;8.82;7.32;;;11.70;99.90;;;;;;5079550;28;20584;-80
2022/11/05 04:14:39;;;;;;;7.50;6.70;;;11.60;99.90;;;;;;5085209;28;20620;-80
2022/11/05 04:17:11;;;;;;;9.25;7.22;;;11.60;99.90;;;;;;5085049;28;20658;-76
2022/11/05 04:25:12;;;;;;;15.32;11.23;;;11.60;99.90;;;;;;5073130;28;20251;-80
2022/11/05 04:27:39;;;;;;;8.35;7.10;;;11.60;99.90;;;;;;5072174;28;20231;-76
2022/11/05 04:30:18;;;;;;;7.68;6.97;;;11.60;99.90;;;;;;5079295;28;20625;-81
2022/11/05 04:33:03;;;;;;;9.85;7.30;;;11.50;99.90;;;;;;5073850;28;20568;-76
2022/11/05 04:35:33;;;;;;;9.68;6.95;;;11.50;99.90;;;;;;5087747;28;20304;-76
2022/11/05 04:38:00;;;;;;;8.23;6.05;;;11.60;99.90;;;;;;5088343;28;20245;-76
2022/11/05 04:40:27;;;;;;;6.90;6.28;;;11.60;99.90;;;;;;5071360;28;20910;-81
2022/11/05 04:42:55;;;;;;;9.40;6.65;;;11.50;99.90;;;;;;5077330;28;20219;-75
2022/11/05 04:45:24;;;;;;;8.15;5.70;;;11.50;99.90;;;;;;5085556;28;20561;-80
2022/11/05 04:47:52;;;;;;;9.00;6.20;;;11.50;99.90;;;;;;5084903;28;20282;-81
2022/11/05 04:50:19;;;;;;;8.77;5.70;;;11.50;99.90;;;;;;5076326;28;20225;-80
2022/11/05 04:52:48;;;;;;;10.45;5.70;;;11.40;99.90;;;;;;5092053;28;20603;-82
2022/11/05 04:55:15;;;;;;;8.30;5.78;;;11.40;99.90;;;;;;5085891;28;20545;-76
2022/11/05 04:57:42;;;;;;;9.35;5.38;;;11.50;99.90;;;;;;5076269;28;20704;-81
2022/11/05 05:00:10;;;;;;;6.63;5.55;;;11.40;99.90;;;;;;5086150;28;20235;-76
2022/11/05 05:02:37;;;;;;;11.05;6.75;;;11.40;99.90;;;;;;5074422;28;20331;-77
2022/11/05 05:05:05;;;;;;;5.43;4.93;;;11.40;99.90;;;;;;5079724;28;20223;-77
2022/11/05 05:07:33;;;;;;;9.63;6.72;;;11.40;99.90;;;;;;5078565;28;20220;-81
2022/11/05 05:10:01;;;;;;;12.15;5.78;;;11.40;99.90;;;;;;5085582;28;20265;-78
2022/11/05 05:12:29;;;;;;;8.75;5.68;;;11.40;99.90;;;;;;5081674;28;20326;-78
2022/11/05 05:14:56;;;;;;;6.40;5.57;;;11.40;99.90;;;;;;5075175;28;20223;-77
2022/11/05 05:17:24;;;;;;;6.50;5.70;;;11.40;99.90;;;;;;5082382;28;20243;-82
2022/11/05 05:22:35;;;;;;;7.60;5.05;;;11.30;99.90;;;;;;5065143;28;20568;-78
2022/11/05 05:25:05;;;;;;;7.63;5.07;;;11.30;99.90;;;;;;5078995;28;20514;-77
2022/11/05 05:27:32;;;;;;;8.45;5.38;;;11.30;99.90;;;;;;5079618;28;20220;-82
2022/11/05 05:30:00;;;;;;;9.25;5.78;;;11.30;99.90;;;;;;5078228;28;20235;-81
2022/11/05 05:32:28;;;;;;;7.45;5.10;;;11.30;99.90;;;;;;5079055;28;20282;-81
2022/11/05 05:34:55;;;;;;;8.80;4.90;;;11.30;99.90;;;;;;5074995;28;20271;-81
2022/11/05 05:37:22;;;;;;;8.60;5.75;;;11.30;99.90;;;;;;5091755;28;20254;-77
2022/11/05 05:39:49;;;;;;;6.03;5.07;;;11.30;99.90;;;;;;5070766;28;20235;-76
2022/11/05 05:42:20;;;;;;;6.25;4.85;;;11.30;99.90;;;;;;5087361;28;20224;-81
2022/11/05 05:44:49;;;;;;;11.20;8.10;;;11.30;99.90;;;;;;5072968;28;20234;-76
2022/11/05 05:47:16;;;;;;;10.32;7.60;;;11.30;99.90;;;;;;5068675;28;20224;-76
2022/11/05 05:49:46;;;;;;;7.05;5.97;;;11.30;99.90;;;;;;5059902;28;20248;-81
2022/11/05 05:52:19;;;;;;;9.10;5.93;;;11.20;99.90;;;;;;5071273;28;20546;-82
2022/11/05 05:54:46;;;;;;;9.07;5.28;;;11.20;99.90;;;;;;5071830;28;20273;-80
2022/11/05 05:57:15;;;;;;;6.18;5.57;;;11.20;99.90;;;;;;5072076;28;20239;-80
2022/11/05 05:59:43;;;;;;;7.65;5.35;;;11.10;99.90;;;;;;5072186;28;20224;-81
2022/11/05 06:02:11;;;;;;;7.50;6.05;;;11.10;99.90;;;;;;5072403;28;20323;-81
2022/11/05 06:04:38;;;;;;;8.95;5.70;;;11.10;99.90;;;;;;5072746;28;20216;-77
2022/11/05 06:07:07;;;;;;;7.40;5.72;;;11.10;99.90;;;;;;5075374;28;20246;-76
2022/11/05 06:09:34;;;;;;;6.18;5.43;;;11.10;99.90;;;;;;5075756;28;20231;-76
2022/11/05 06:12:01;;;;;;;6.60;4.90;;;11.10;99.90;;;;;;5075135;28;20232;-81
2022/11/05 06:14:28;;;;;;;5.60;5.03;;;11.10;99.90;;;;;;5074484;28;20240;-80
2022/11/05 06:16:57;;;;;;;8.50;6.00;;;11.00;99.90;;;;;;5074578;28;20223;-80
2022/11/05 06:19:24;;;;;;;7.25;4.97;;;11.00;99.90;;;;;;5076165;28;20220;-82
2022/11/05 06:21:51;;;;;;;5.90;4.72;;;11.00;99.90;;;;;;5075417;28;20224;-77
2022/11/05 06:24:19;;;;;;;8.65;6.20;;;11.00;99.90;;;;;;5075373;28;20227;-81
2022/11/05 06:26:46;;;;;;;7.75;4.70;;;11.00;99.90;;;;;;5075022;28;20269;-77
2022/11/05 06:29:13;;;;;;;6.95;5.18;;;11.00;99.90;;;;;;5076072;28;20306;-82
2022/11/05 06:31:40;;;;;;;7.45;5.28;;;11.00;99.90;;;;;;5075643;28;20258;-77
2022/11/05 06:34:08;;;;;;;7.22;5.60;;;11.00;99.90;;;;;;5075085;28;20299;-77
2022/11/05 06:36:35;;;;;;;8.82;5.47;;;11.00;99.90;;;;;;5075422;28;20270;-81
2022/11/05 06:39:03;;;;;;;8.45;5.55;;;11.00;99.90;;;;;;5077171;28;20704;-77
2022/11/05 06:41:29;;;;;;;5.72;4.90;;;11.00;99.90;;;;;;5077596;28;20226;-77
2022/11/05 06:43:57;;;;;;;5.00;4.60;;;11.00;99.90;;;;;;5076644;28;20239;-77
2022/11/05 06:46:23;;;;;;;7.78;5.53;;;11.00;99.90;;;;;;5077316;28;20227;-77
2022/11/05 06:48:50;;;;;;;6.75;5.20;;;11.00;99.90;;;;;;5075497;28;20236;-78
2022/11/05 06:51:19;;;;;;;4.90;4.28;;;11.00;99.90;;;;;;5077620;28;20219;-81
2022/11/05 06:53:46;;;;;;;7.38;5.00;;;11.00;99.90;;;;;;5076665;28;20312;-80
2022/11/05 06:56:13;;;;;;;6.20;5.10;;;11.00;99.90;;;;;;5076583;28;20766;-77
2022/11/05 06:58:40;;;;;;;6.60;4.93;;;11.00;99.90;;;;;;5076113;28;20231;-78
2022/11/05 07:01:09;;;;;;;6.88;4.97;;;11.00;99.90;;;;;;5075148;28;20526;-81
2022/11/05 07:03:37;;;;;;;6.90;5.35;;;11.00;99.90;;;;;;5075655;28;20235;-81
2022/11/05 07:06:06;;;;;;;5.80;5.30;;;11.00;99.90;;;;;;5075011;28;20689;-81
2022/11/05 07:08:35;;;;;;;7.43;5.47;;;11.00;99.90;;;;;;5075640;28;20235;-81
2022/11/05 07:11:03;;;;;;;7.75;5.40;;;11.00;99.90;;;;;;5075303;28;20307;-81
2022/11/05 07:13:30;;;;;;;6.35;3.55;;;11.00;99.90;;;;;;5075846;28;20627;-82
2022/11/05 07:15:58;;;;;;;7.53;4.78;;;11.00;99.90;;;;;;5073316;28;20562;-81
2022/11/05 07:18:25;;;;;;;5.80;5.20;;;11.00;99.90;;;;;;5073908;28;20224;-77
2022/11/05 07:20:52;;;;;;;8.20;5.65;;;11.00;99.90;;;;;;5073921;28;20223;-78
2022/11/05 07:23:19;;;;;;;5.88;5.22;;;11.00;99.90;;;;;;5074448;28;20220;-77
2022/11/05 07:25:47;;;;;;;9.90;4.90;;;11.00;99.90;;;;;;5074737;28;20669;-78
2022/11/05 07:28:42;;;;;;;12.43;7.15;;;11.00;99.90;;;;;;5073871;28;20558;-77
2022/11/05 07:33:58;;;;;;;10.45;6.95;;;11.00;99.90;;;;;;5035821;28;20312;-77
2022/11/05 07:36:25;;;;;;;12.15;6.90;;;11.00;99.90;;;;;;5074558;28;20230;-77
2022/11/05 07:38:54;;;;;;;12.85;6.78;;;11.00;99.90;;;;;;5074234;28;20310;-76
2022/11/05 07:41:23;;;;;;;10.80;6.50;;;11.00;99.90;;;;;;5074136;28;20623;-81
2022/11/05 07:43:52;;;;;;;16.33;6.30;;;11.00;99.90;;;;;;5074238;28;20227;-77
2022/11/05 07:46:22;;;;;;;7.70;5.75;;;11.00;99.90;;;;;;5073992;28;20224;-76
2022/11/05 07:48:49;;;;;;;9.68;6.20;;;11.00;99.90;;;;;;5063204;28;20239;-76
2022/11/05 07:51:16;;;;;;;12.35;5.38;;;11.00;99.90;;;;;;5073306;28;20233;-81
2022/11/05 07:53:43;;;;;;;7.03;4.90;;;10.90;99.90;;;;;;5073273;28;20320;-81
2022/11/05 07:56:11;;;;;;;8.63;5.55;;;11.00;99.90;;;;;;5073062;28;20278;-80
2022/11/05 07:58:40;;;;;;;6.30;4.25;;;11.00;99.90;;;;;;5073875;28;20319;-81
2022/11/05 08:01:07;;;;;;;9.18;7.13;;;11.00;99.90;;;;;;5072955;28;20234;-77
2022/11/05 08:03:34;;;;;;;8.15;5.95;;;11.00;99.90;;;;;;5074140;28;20391;-77
2022/11/05 08:06:04;;;;;;;7.57;6.43;;;11.00;99.90;;;;;;5073288;28;20262;-80
2022/11/05 08:08:30;;;;;;;9.73;7.35;;;11.00;99.90;;;;;;5073888;28;20227;-76
2022/11/05 08:11:03;;;;;;;9.90;6.10;;;11.00;99.90;;;;;;5073648;28;20252;-76
2022/11/05 08:13:36;;;;;;;8.30;6.40;;;11.00;99.90;;;;;;5072984;28;20648;-77
2022/11/05 08:16:06;;;;;;;10.45;6.15;;;11.00;99.90;;;;;;5073649;28;20736;-77
2022/11/05 08:18:35;;;;;;;7.07;5.80;;;11.00;99.90;;;;;;5073567;28;20331;-81
2022/11/05 08:21:10;;;;;;;13.70;7.22;;;11.00;99.90;;;;;;5073685;28;20220;-81
2022/11/05 08:23:38;;;;;;;12.13;7.15;;;11.00;99.90;;;;;;5064443;28;20300;-77
2022/11/05 08:26:05;;;;;;;7.82;6.03;;;11.00;99.90;;;;;;5073858;28;20239;-77
2022/11/05 08:28:35;;;;;;;9.05;6.32;;;11.00;99.90;;;;;;5072453;28;20277;-77
2022/11/05 08:31:04;;;;;;;7.78;6.22;;;11.00;99.90;;;;;;5073544;28;20223;-77
2022/11/05 08:33:32;;;;;;;11.35;6.55;;;11.00;99.90;;;;;;5071485;28;20250;-77
2022/11/05 08:36:02;;;;;;;9.68;7.05;;;11.00;99.90;;;;;;5073546;28;20536;-81
2022/11/05 08:38:29;;;;;;;12.95;8.65;;;11.00;99.90;;;;;;5072174;28;20224;-77
2022/11/05 08:40:58;;;;;;;19.30;12.93;;;11.10;99.90;;;;;;5073752;28;20303;-78
2022/11/05 08:43:25;;;;;;;13.65;10.13;;;11.10;99.90;;;;;;5072475;28;20285;-76
2022/11/05 08:45:53;;;;;;;16.95;9.98;;;11.10;99.90;;;;;;5062585;28;20216;-76
2022/11/05 08:48:22;;;;;;;16.42;10.23;;;11.10;99.90;;;;;;5072430;28;20250;-81
2022/11/05 08:50:50;;;;;;;18.45;11.38;;;11.20;99.90;;;;;;5073786;28;20223;-81
2022/11/05 08:53:17;;;;;;;18.48;11.60;;;11.30;99.90;;;;;;5073574;28;20531;-80
2022/11/05 08:55:48;;;;;;;15.05;10.07;;;11.30;99.90;;;;;;5072982;28;20232;-81
2022/11/05 08:58:18;;;;;;;20.17;13.20;;;11.30;99.90;;;;;;5073412;28;20224;-76
2022/11/05 09:00:47;;;;;;;16.15;9.55;;;11.30;99.90;;;;;;5071907;28;20669;-80
2022/11/05 09:03:15;;;;;;;10.40;6.82;;;11.30;99.90;;;;;;5074070;28;20311;-80
2022/11/05 09:05:45;;;;;;;17.80;12.27;;;11.40;99.90;;;;;;5072023;28;20234;-76
2022/11/05 09:08:14;;;;;;;27.00;17.23;;;11.40;99.90;;;;;;5072610;28;20331;-77
2022/11/05 09:10:46;;;;;;;11.82;9.43;;;11.50;99.90;;;;;;5074436;28;20237;-77
2022/11/05 09:13:14;;;;;;;12.07;8.43;;;11.50;99.90;;;;;;5074425;28;20246;-76
2022/11/05 09:15:41;;;;;;;11.52;8.57;;;11.50;99.90;;;;;;5072323;28;20612;-80
2022/11/05 09:18:12;;;;;;;12.32;8.52;;;11.60;99.90;;;;;;5074087;28;20235;-76
2022/11/05 09:20:39;;;;;;;14.45;9.98;;;11.60;99.90;;;;;;5072372;28;20248;-76
2022/11/05 09:23:08;;;;;;;14.30;8.77;;;11.60;99.90;;;;;;5072179;28;20247;-82
2022/11/05 09:25:38;;;;;;;21.58;14.38;;;11.70;99.90;;;;;;5072743;28;20224;-77
2022/11/05 09:28:10;;;;;;;20.42;13.50;;;11.70;99.90;;;;;;5072112;28;20219;-80
2022/11/05 09:30:41;;;;;;;11.65;7.47;;;11.80;99.90;;;;;;5072681;28;20331;-81
2022/11/05 09:33:08;;;;;;;10.63;7.95;;;11.80;99.90;;;;;;5044218;28;20224;-81
2022/11/05 09:35:38;;;;;;;23.48;16.23;;;11.90;99.90;;;;;;5072548;28;20303;-81
2022/11/05 09:38:07;;;;;;;12.50;9.32;;;11.90;99.90;;;;;;5072506;28;20244;-81
2022/11/05 09:40:39;;;;;;;13.77;7.53;;;11.90;99.90;;;;;;5074765;28;20249;-80
2022/11/05 09:43:07;;;;;;;14.13;10.75;;;12.00;99.90;;;;;;5076511;28;20224;-80
2022/11/05 09:45:36;;;;;;;18.67;11.63;;;12.00;99.90;;;;;;5076930;28;20223;-80
2022/11/05 09:48:08;;;;;;;11.40;8.50;;;12.00;99.90;;;;;;5076067;28;20251;-80
2022/11/05 09:50:40;;;;;;;9.35;6.70;;;12.10;99.90;;;;;;5076382;28;20590;-81
2022/11/05 09:53:12;;;;;;;8.93;6.13;;;12.10;99.90;;;;;;5075888;28;20231;-80
2022/11/05 09:55:43;;;;;;;6.25;4.95;;;12.10;99.90;;;;;;5076853;28;20569;-81
2022/11/05 09:58:16;;;;;;;4.85;4.10;;;12.20;99.90;;;;;;5075945;28;20228;-80
2022/11/05 10:00:47;;;;;;;5.55;4.15;;;12.20;99.90;;;;;;5076811;28;20224;-80
2022/11/05 10:03:18;;;;;;;5.35;4.05;;;12.20;99.90;;;;;;5075690;28;20566;-80
2022/11/05 10:05:46;;;;;;;5.05;4.10;;;12.30;99.90;;;;;;5076604;28;20243;-79
2022/11/05 10:08:20;;;;;;;5.88;3.45;;;12.30;99.90;;;;;;5075250;28;20254;-81
2022/11/05 10:10:50;;;;;;;4.75;3.30;;;12.30;99.90;;;;;;5076016;28;20581;-76
2022/11/05 10:13:25;;;;;;;4.07;3.65;;;12.40;99.90;;;;;;5075321;28;20254;-76
2022/11/05 10:15:59;;;;;;;8.07;3.40;;;12.40;99.90;;;;;;5075923;28;20247;-80
2022/11/05 10:18:31;;;;;;;4.25;3.10;;;12.40;99.90;;;;;;5075770;28;20243;-81
2022/11/05 10:20:58;;;;;;;4.35;3.35;;;12.50;99.90;;;;;;5075326;28;20282;-77
2022/11/05 10:23:28;;;;;;;3.65;3.15;;;12.50;99.90;;;;;;5075498;28;20510;-81
2022/11/05 10:26:01;;;;;;;2.58;2.38;;;12.50;99.90;;;;;;5075634;28;20322;-81
2022/11/05 10:28:30;;;;;;;3.85;2.85;;;12.50;99.90;;;;;;5075229;28;20307;-81
2022/11/05 10:30:59;;;;;;;3.90;3.40;;;12.60;99.90;;;;;;5075280;28;20256;-81
2022/11/05 10:33:31;;;;;;;5.57;3.60;;;12.60;99.90;;;;;;5075372;28;20240;-81
2022/11/05 10:36:03;;;;;;;4.63;2.60;;;12.60;99.90;;;;;;5075530;28;20243;-77
2022/11/05 10:38:31;;;;;;;4.07;3.30;;;12.70;99.90;;;;;;5075330;28;20216;-76
2022/11/05 10:41:09;;;;;;;2.50;2.30;;;12.70;99.90;;;;;;5075335;28;20220;-81
2022/11/05 10:43:41;;;;;;;4.72;3.03;;;12.70;99.90;;;;;;5075436;28;20224;-80
2022/11/05 10:46:28;;;;;;;3.63;2.63;;;12.80;99.90;;;;;;5074854;28;20262;-77
2022/11/05 10:49:20;;;;;;;4.32;2.70;;;12.80;99.90;;;;;;5075925;28;20715;-76
2022/11/05 10:51:54;;;;;;;5.38;2.70;;;12.80;99.90;;;;;;5074963;28;20216;-80
2022/11/05 10:54:29;;;;;;;4.70;2.78;;;12.80;99.90;;;;;;5076454;28;20299;-80
2022/11/05 10:56:56;;;;;;;7.03;3.30;;;12.80;99.90;;;;;;5065171;28;20220;-81
2022/11/05 10:59:33;;;;;;;5.38;4.82;;;12.90;99.90;;;;;;5074710;28;20638;-79
2022/11/05 11:02:03;;;;;;;9.45;6.22;;;12.90;99.90;;;;;;5075451;28;20294;-81
2022/11/05 11:04:31;;;;;;;7.75;6.53;;;12.90;99.90;;;;;;5075556;28;20595;-80
2022/11/05 11:06:59;;;;;;;7.55;5.45;;;13.00;99.90;;;;;;5075101;28;20281;-80
2022/11/05 11:09:31;;;;;;;11.27;6.05;;;13.00;99.90;;;;;;5074544;28;20311;-80
2022/11/05 11:12:06;;;;;;;8.05;7.18;;;13.00;99.90;;;;;;5080875;28;20236;-80
2022/11/05 11:14:33;;;;;;;10.00;6.10;;;13.00;99.90;;;;;;5079221;28;20235;-76
2022/11/05 11:17:18;;;;;;;7.00;6.30;;;13.10;99.90;;;;;;5075413;28;20235;-81
2022/11/05 11:19:45;;;;;;;9.00;5.50;;;13.10;99.90;;;;;;5075714;28;20215;-76
2022/11/05 11:22:19;;;;;;;5.78;4.35;;;13.10;99.90;;;;;;5073645;28;20289;-76
2022/11/05 11:24:49;;;;;;;14.13;7.50;;;13.20;99.90;;;;;;5075142;28;20219;-81
2022/11/05 11:27:22;;;;;;;6.03;4.20;;;13.20;99.90;;;;;;5075496;28;20220;-77
2022/11/05 11:29:57;;;;;;;18.75;9.48;;;13.20;99.90;;;;;;5075407;28;20219;-81
2022/11/05 11:32:28;;;;;;;10.65;7.85;;;13.30;99.90;;;;;;5074462;28;20228;-80
2022/11/05 11:34:57;;;;;;;6.85;5.57;;;13.30;99.90;;;;;;5075346;28;20254;-81
2022/11/05 11:37:29;;;;;;;4.88;3.40;;;13.30;99.90;;;;;;5075263;28;20269;-80
2022/11/05 11:40:02;;;;;;;5.60;4.23;;;13.40;99.90;;;;;;5074954;28;20620;-76
2022/11/05 11:42:33;;;;;;;10.25;5.68;;;13.40;99.90;;;;;;5074906;28;20533;-81
2022/11/05 11:45:07;;;;;;;5.25;3.85;;;13.40;99.90;;;;;;5076043;28;20266;-80
2022/11/05 11:47:34;;;;;;;5.72;3.20;;;13.40;99.90;;;;;;5073752;28;20587;-79
2022/11/05 11:50:02;;;;;;;5.97;4.03;;;13.40;99.90;;;;;;5075643;28;20236;-80
2022/11/05 11:52:32;;;;;;;10.20;5.90;;;13.40;99.90;;;;;;5074604;28;20761;-77
2022/11/05 11:55:20;;;;;;;6.70;5.43;;;13.50;99.90;;;;;;5074775;28;20524;-77
2022/11/05 11:57:48;;;;;;;8.75;6.18;;;13.50;99.90;;;;;;5075522;28;20501;-77
2022/11/05 12:00:16;;;;;;;6.32;4.88;;;13.50;99.90;;;;;;5074313;28;20402;-77
2022/11/05 12:02:58;;;;;;;13.13;7.47;;;13.50;99.90;;;;;;5063362;28;20220;-77
2022/11/05 12:05:32;;;;;;;8.87;6.80;;;13.60;99.90;;;;;;5075395;28;20531;-77
2022/11/05 12:08:12;;;;;;;11.65;6.95;;;13.60;99.90;;;;;;5076722;28;20549;-82
2022/11/05 12:10:54;;;;;;;15.83;8.23;;;13.60;99.90;;;;;;5086922;28;20208;-80
2022/11/05 12:13:51;;;;;;;6.80;5.73;;;13.60;99.90;;;;;;5089541;28;20951;-79
2022/11/05 12:16:28;;;;;;;10.30;5.97;;;13.70;99.90;;;;;;5092225;28;20960;-80
2022/11/05 12:19:07;;;;;;;10.97;5.43;;;13.60;99.90;;;;;;5092287;28;20469;-80
2022/11/05 12:21:42;;;;;;;6.65;5.63;;;13.70;99.90;;;;;;5085761;28;20472;-77
2022/11/05 12:24:36;;;;;;;5.10;3.97;;;13.70;99.90;;;;;;5089325;28;20247;-79
2022/11/05 12:27:16;;;;;;;5.63;4.75;;;13.70;99.90;;;;;;5088814;28;20462;-76
2022/11/05 12:29:54;;;;;;;8.80;5.40;;;13.70;99.90;;;;;;5087132;28;20251;-77
2022/11/05 12:32:36;;;;;;;7.50;6.10;;;13.70;99.90;;;;;;5085366;28;20462;-76
2022/11/05 12:35:15;;;;;;;10.37;7.70;;;13.70;99.90;;;;;;5086771;28;20956;-77
2022/11/05 12:37:53;;;;;;;20.40;13.60;;;13.80;99.90;;;;;;5090167;28;20462;-78
2022/11/05 12:40:48;;;;;;;10.03;6.60;;;13.90;99.90;;;;;;5086088;28;20458;-81
2022/11/05 12:43:29;;;;;;;7.20;6.43;;;13.90;99.90;;;;;;5076743;28;20995;-77
2022/11/05 12:46:02;;;;;;;16.40;12.33;;;14.00;99.90;;;;;;5081893;28;20498;-77
2022/11/05 12:48:44;;;;;;;13.57;10.37;;;14.00;99.90;;;;;;5082863;28;20467;-76
2022/11/05 12:51:22;;;;;;;12.50;7.33;;;14.20;99.90;;;;;;5077267;28;20466;-81
2022/11/05 12:54:01;;;;;;;31.83;23.00;;;14.20;99.90;;;;;;5082538;28;20466;-81
2022/11/05 12:56:34;;;;;;;21.47;15.00;;;14.20;99.90;;;;;;5077957;28;20476;-80
2022/11/05 12:59:10;;;;;;;19.60;15.80;;;14.20;99.90;;;;;;5076277;28;20462;-80
2022/11/05 13:01:43;;;;;;;23.73;16.80;;;14.20;99.90;;;;;;5074558;28;20563;-78
2022/11/05 13:04:17;;;;;;;12.80;9.33;;;14.20;99.90;;;;;;5074683;28;20500;-82
2022/11/05 13:06:49;;;;;;;13.23;10.33;;;14.20;99.90;;;;;;5073441;28;20563;-76
2022/11/05 13:09:20;;;;;;;12.70;7.53;;;14.20;99.90;;;;;;5073635;28;20519;-76
2022/11/05 13:11:52;;;;;;;14.02;9.18;;;14.10;99.90;;;;;;5072680;28;20474;-76
2022/11/05 13:14:25;;;;;;;13.27;9.50;;;14.10;99.90;;;;;;5072878;28;20220;-77
2022/11/05 13:16:55;;;;;;;10.60;6.40;;;14.10;99.90;;;;;;5072240;28;20505;-77
2022/11/05 13:19:24;;;;;;;11.33;8.00;;;14.10;99.90;;;;;;5073023;28;20807;-77
2022/11/05 13:22:00;;;;;;;12.70;10.40;;;14.10;99.90;;;;;;5071946;28;20505;-77
2022/11/05 13:24:32;;;;;;;8.60;7.60;;;14.10;99.90;;;;;;5072718;28;20806;-76
2022/11/05 13:27:08;;;;;;;3.80;3.43;;;14.00;99.90;;;;;;5072615;28;20616;-77
2022/11/05 13:29:43;;;;;;;6.30;3.37;;;14.00;99.90;;;;;;5072403;28;20473;-75
2022/11/05 13:32:21;;;;;;;5.23;4.10;;;13.90;99.90;;;;;;5072257;28;20481;-80
2022/11/05 13:34:54;;;;;;;10.90;9.00;;;13.90;99.90;;;;;;5076196;28;20454;-81
2022/11/05 13:40:13;;;;;;;6.93;5.13;;;13.90;99.90;;;;;;5074455;28;20511;-80
2022/11/05 13:43:04;;;;;;;6.83;3.20;;;13.80;99.90;;;;;;5074000;28;20462;-76
2022/11/05 13:45:56;;;;;;;4.70;3.50;;;13.80;99.90;;;;;;5072462;28;20781;-76
2022/11/05 13:48:36;;;;;;;3.07;2.77;;;13.80;99.90;;;;;;5071704;28;20459;-76
2022/11/05 13:51:22;;;;;;;3.47;2.13;;;13.80;99.90;;;;;;5072364;28;20545;-77